createdAt,value
2023-04-20T00:00:32.486Z,7.57
2023-04-20T00:03:00.850Z,7.61
2023-04-20T00:05:27.834Z,7.63
2023-04-20T00:07:54.736Z,7.67
2023-04-20T00:10:21.543Z,7.69
2023-04-20T00:12:48.240Z,7.77
2023-04-20T00:15:15.002Z,7.79
2023-04-20T00:17:41.815Z,7.82
2023-04-20T00:20:10.136Z,7.83
2023-04-20T00:22:37.134Z,7.81
2023-04-20T00:25:04.052Z,7.77
2023-04-20T00:27:30.800Z,7.72
2023-04-20T00:29:57.795Z,7.66
2023-04-20T00:32:24.629Z,7.52
2023-04-20T00:34:51.326Z,7.54
2023-04-20T00:37:18.123Z,7.56
2023-04-20T00:39:44.934Z,7.52
2023-04-20T00:42:11.781Z,7.44
2023-04-20T00:44:38.632Z,7.40
2023-04-20T00:47:05.832Z,7.33
2023-04-20T00:49:32.600Z,7.22
2023-04-20T00:52:00.244Z,7.23
2023-04-20T00:54:28.476Z,7.20
2023-04-20T00:56:56.537Z,7.16
2023-04-20T00:59:23.295Z,7.16
2023-04-20T01:01:50.048Z,7.17
2023-04-20T01:04:17.466Z,7.21
2023-04-20T01:06:44.406Z,7.24
2023-04-20T01:09:12.364Z,7.19
2023-04-20T01:11:39.530Z,7.25
2023-04-20T01:14:06.593Z,7.23
2023-04-20T01:16:35.028Z,7.19
2023-04-20T01:19:02.058Z,7.16
2023-04-20T01:21:28.833Z,7.12
2023-04-20T01:23:55.549Z,7.09
2023-04-20T01:26:24.008Z,7.10
2023-04-20T01:28:50.819Z,7.09
2023-04-20T01:31:18.129Z,7.09
2023-04-20T01:33:44.840Z,7.06
2023-04-20T01:36:11.773Z,7.04
2023-04-20T01:38:38.534Z,6.99
2023-04-20T01:41:07.282Z,7.00
2023-04-20T01:43:35.898Z,6.97
2023-04-20T01:46:02.909Z,6.96
2023-04-20T01:48:29.681Z,6.97
2023-04-20T01:50:56.538Z,6.97
2023-04-20T01:53:25.154Z,6.95
2023-04-20T01:55:51.988Z,6.88
2023-04-20T01:58:18.698Z,6.85
2023-04-20T02:00:45.514Z,6.76
2023-04-20T02:03:12.680Z,6.75
2023-04-20T02:05:39.454Z,6.72
2023-04-20T02:08:06.206Z,6.65
2023-04-20T02:10:33.064Z,6.61
2023-04-20T02:12:59.776Z,6.54
2023-04-20T02:15:26.836Z,6.53
2023-04-20T02:17:53.774Z,6.46
2023-04-20T02:20:20.920Z,6.41
2023-04-20T02:22:47.765Z,6.41
2023-04-20T02:25:15.031Z,6.35
2023-04-20T02:27:42.145Z,6.37
2023-04-20T02:30:09.559Z,6.32
2023-04-20T02:32:36.573Z,6.34
2023-04-20T02:35:06.604Z,6.35
2023-04-20T02:37:33.557Z,6.30
2023-04-20T02:40:00.455Z,6.30
2023-04-20T02:42:27.240Z,6.29
2023-04-20T02:44:53.983Z,6.27
2023-04-20T02:47:20.859Z,6.25
2023-04-20T02:49:47.659Z,6.26
2023-04-20T02:52:14.942Z,6.23
2023-04-20T02:54:41.739Z,6.26
2023-04-20T02:57:08.556Z,6.27
2023-04-20T02:59:35.296Z,6.25
2023-04-20T03:02:02.151Z,6.26
2023-04-20T03:04:30.964Z,6.28
2023-04-20T03:06:58.679Z,6.31
2023-04-20T03:09:25.476Z,6.34
2023-04-20T03:11:52.190Z,6.37
2023-04-20T03:14:18.961Z,6.37
2023-04-20T03:16:46.360Z,6.40
2023-04-20T03:19:13.693Z,6.44
2023-04-20T03:21:40.453Z,6.47
2023-04-20T03:24:07.344Z,6.51
2023-04-20T03:26:34.186Z,6.52
2023-04-20T03:29:00.874Z,6.51
2023-04-20T03:31:27.637Z,6.52
2023-04-20T03:33:54.424Z,6.50
2023-04-20T03:36:21.193Z,6.51
2023-04-20T03:38:47.969Z,6.48
2023-04-20T03:41:15.110Z,6.42
2023-04-20T03:43:41.820Z,6.43
2023-04-20T03:46:08.716Z,6.47
2023-04-20T03:48:35.742Z,6.46
2023-04-20T03:51:02.595Z,6.48
2023-04-20T03:53:29.314Z,6.44
2023-04-20T03:55:56.155Z,6.38
2023-04-20T03:58:23.025Z,6.28
2023-04-20T04:00:49.769Z,6.20
2023-04-20T04:03:16.727Z,6.21
2023-04-20T04:05:43.608Z,6.20
2023-04-20T04:08:10.398Z,6.18
2023-04-20T04:10:37.060Z,6.18
2023-04-20T04:13:03.883Z,6.14
2023-04-20T04:15:30.689Z,6.15
2023-04-20T04:17:57.526Z,6.15
2023-04-20T04:20:24.390Z,6.17
2023-04-20T04:22:52.156Z,6.18
2023-04-20T04:25:18.976Z,6.19
2023-04-20T04:27:46.519Z,6.17
2023-04-20T04:30:13.939Z,6.22
2023-04-20T04:32:41.861Z,6.16
2023-04-20T04:35:08.909Z,6.25
2023-04-20T04:37:35.891Z,6.26
2023-04-20T04:40:04.434Z,6.30
2023-04-20T04:42:31.292Z,6.33
2023-04-20T04:44:58.586Z,6.39
2023-04-20T04:47:25.541Z,6.42
2023-04-20T04:49:52.566Z,6.50
2023-04-20T04:52:19.306Z,6.54
2023-04-20T04:54:46.190Z,6.58
2023-04-20T04:57:12.932Z,6.69
2023-04-20T04:59:39.773Z,6.75
2023-04-20T05:02:06.762Z,6.81
2023-04-20T05:04:34.165Z,6.89
2023-04-20T05:07:01.072Z,6.98
2023-04-20T05:09:33.298Z,7.08
2023-04-20T05:12:03.889Z,7.13
2023-04-20T05:14:31.882Z,7.20
2023-04-20T05:16:59.961Z,7.31
2023-04-20T05:19:26.718Z,7.42
2023-04-20T05:21:53.544Z,7.51
2023-04-20T05:24:20.307Z,7.65
2023-04-20T05:26:47.109Z,7.76
2023-04-20T05:29:15.531Z,7.92
2023-04-20T05:31:42.503Z,8.05
2023-04-20T05:34:09.371Z,8.16
2023-04-20T05:36:36.057Z,8.27
2023-04-20T05:39:03.264Z,8.44
2023-04-20T05:41:29.998Z,8.71
2023-04-20T05:43:56.994Z,8.92
2023-04-20T05:46:24.003Z,9.25
2023-04-20T05:48:51.026Z,9.57
2023-04-20T05:51:17.876Z,10.04
2023-04-20T05:53:44.762Z,10.22
2023-04-20T05:56:11.736Z,10.36
2023-04-20T05:58:38.643Z,10.47
2023-04-20T06:01:05.507Z,10.51
2023-04-20T06:03:32.368Z,10.63
2023-04-20T06:05:59.891Z,10.70
2023-04-20T06:08:26.692Z,10.66
2023-04-20T06:10:55.909Z,10.59
2023-04-20T06:13:22.829Z,10.67
2023-04-20T06:15:49.704Z,10.91
2023-04-20T06:18:16.495Z,10.99
2023-04-20T06:20:43.970Z,11.15
2023-04-20T06:23:13.952Z,11.29
2023-04-20T06:25:41.103Z,11.49
2023-04-20T06:28:08.092Z,11.67
2023-04-20T06:30:34.848Z,11.96
2023-04-20T06:33:03.071Z,12.18
2023-04-20T06:35:29.968Z,12.41
2023-04-20T06:37:57.667Z,12.56
2023-04-20T06:40:27.978Z,12.81
2023-04-20T06:42:54.729Z,13.19
2023-04-20T06:45:21.477Z,13.61
2023-04-20T06:47:50.433Z,13.95
2023-04-20T06:50:20.235Z,14.34
2023-04-20T06:52:48.403Z,14.52
2023-04-20T06:55:15.375Z,14.75
2023-04-20T06:57:43.999Z,14.79
2023-04-20T07:00:12.288Z,15.07
2023-04-20T07:02:46.420Z,15.28
2023-04-20T07:05:14.366Z,15.44
2023-04-20T07:07:41.279Z,15.59
2023-04-20T07:10:09.209Z,15.73
2023-04-20T07:12:36.820Z,15.99
2023-04-20T07:15:05.152Z,16.01
2023-04-20T07:17:32.068Z,16.09
2023-04-20T07:20:05.873Z,15.94
2023-04-20T07:22:33.438Z,15.83
2023-04-20T07:25:04.786Z,15.94
2023-04-20T07:27:35.217Z,15.95
2023-04-20T07:30:02.118Z,16.22
2023-04-20T07:32:28.892Z,16.38
2023-04-20T07:34:55.756Z,16.46
2023-04-20T07:37:22.473Z,16.64
2023-04-20T07:39:49.179Z,16.88
2023-04-20T07:42:16.021Z,17.08
2023-04-20T07:44:42.804Z,17.30
2023-04-20T07:47:09.526Z,17.47
2023-04-20T07:49:37.808Z,17.66
2023-04-20T07:52:15.871Z,17.90
2023-04-20T07:54:45.613Z,18.14
2023-04-20T07:57:12.527Z,18.34
2023-04-20T07:59:40.822Z,18.65
2023-04-20T08:02:08.562Z,18.70
2023-04-20T08:04:39.165Z,18.67
2023-04-20T08:07:06.197Z,18.76
2023-04-20T08:09:33.155Z,18.86
2023-04-20T08:12:00.590Z,19.12
2023-04-20T08:14:27.444Z,19.33
2023-04-20T08:16:54.240Z,19.59
2023-04-20T08:19:21.059Z,19.97
2023-04-20T08:21:47.870Z,20.34
2023-04-20T08:24:14.674Z,20.53
2023-04-20T08:26:43.357Z,20.50
2023-04-20T08:29:10.246Z,20.73
2023-04-20T08:31:37.143Z,20.87
2023-04-20T08:34:03.948Z,20.77
2023-04-20T08:36:30.716Z,20.93
2023-04-20T08:39:08.421Z,21.09
2023-04-20T08:41:36.120Z,20.98
2023-04-20T08:44:03.150Z,21.35
2023-04-20T08:46:30.421Z,21.61
2023-04-20T08:48:58.020Z,21.85
2023-04-20T08:51:24.840Z,21.90
2023-04-20T08:53:51.728Z,22.10
2023-04-20T08:56:18.722Z,22.41
2023-04-20T08:58:45.708Z,22.57
2023-04-20T09:01:14.115Z,22.64
2023-04-20T09:03:45.029Z,22.75
2023-04-20T09:06:18.033Z,22.94
2023-04-20T09:08:48.870Z,22.89
2023-04-20T09:11:26.725Z,23.12
2023-04-20T09:14:07.055Z,23.26
2023-04-20T09:16:37.438Z,23.42
2023-04-20T09:19:04.335Z,23.74
2023-04-20T09:21:32.685Z,23.70
2023-04-20T09:24:06.550Z,23.75
2023-04-20T09:26:35.767Z,23.92
2023-04-20T09:29:03.754Z,24.11
2023-04-20T09:31:30.633Z,23.84
2023-04-20T09:34:04.010Z,23.99
2023-04-20T09:36:40.392Z,23.36
2023-04-20T09:39:16.829Z,23.55
2023-04-20T09:41:44.234Z,23.93
2023-04-20T09:44:12.022Z,24.48
2023-04-20T09:46:40.690Z,24.85
2023-04-20T09:49:10.664Z,24.98
2023-04-20T09:51:41.822Z,23.83
2023-04-20T09:54:08.793Z,24.10
2023-04-20T09:56:35.979Z,24.49
2023-04-20T09:59:04.336Z,24.68
2023-04-20T10:01:33.586Z,24.66
2023-04-20T10:04:01.454Z,25.10
2023-04-20T10:06:31.005Z,25.55
2023-04-20T10:08:58.364Z,25.68
2023-04-20T10:11:37.065Z,25.84
2023-04-20T10:14:20.846Z,26.25
2023-04-20T10:17:00.034Z,26.45
2023-04-20T10:19:47.416Z,26.60
2023-04-20T10:22:29.210Z,27.07
2023-04-20T10:24:56.041Z,26.98
2023-04-20T10:27:22.837Z,27.45
2023-04-20T10:29:49.691Z,27.90
2023-04-20T10:32:29.372Z,27.94
2023-04-20T10:35:03.894Z,28.26
2023-04-20T10:37:32.026Z,28.32
2023-04-20T10:39:58.998Z,28.04
2023-04-20T10:42:26.650Z,28.15
2023-04-20T10:44:54.466Z,28.54
2023-04-20T10:47:32.558Z,29.35
2023-04-20T10:50:15.290Z,29.91
2023-04-20T10:52:43.995Z,29.61
2023-04-20T10:55:22.214Z,30.19
2023-04-20T10:57:49.974Z,30.60
2023-04-20T11:00:21.975Z,30.41
2023-04-20T11:02:53.545Z,30.12
2023-04-20T11:05:21.682Z,29.98
2023-04-20T11:07:55.131Z,30.55
2023-04-20T11:10:37.964Z,31.08
2023-04-20T11:13:04.817Z,31.47
2023-04-20T11:15:35.296Z,31.84
2023-04-20T11:18:09.503Z,31.89
2023-04-20T11:20:36.483Z,32.32
2023-04-20T11:23:05.128Z,32.63
2023-04-20T11:25:32.267Z,31.73
2023-04-20T11:28:09.101Z,32.15
2023-04-20T11:30:42.404Z,32.93
2023-04-20T11:33:10.349Z,32.74
2023-04-20T11:35:38.502Z,30.70
2023-04-20T11:38:05.409Z,29.14
2023-04-20T11:40:32.247Z,28.14
2023-04-20T11:43:00.148Z,27.09
2023-04-20T11:45:28.059Z,26.49
2023-04-20T11:47:55.267Z,25.78
2023-04-20T11:50:22.423Z,26.94
2023-04-20T11:52:49.265Z,27.58
2023-04-20T11:55:16.580Z,26.89
2023-04-20T11:57:43.458Z,26.73
2023-04-20T12:00:10.754Z,26.35
2023-04-20T12:02:37.663Z,27.10
2023-04-20T12:05:04.958Z,29.50
2023-04-20T12:07:32.009Z,30.82
2023-04-20T12:09:58.749Z,31.67
2023-04-20T12:12:26.753Z,32.90
2023-04-20T12:14:53.564Z,34.18
2023-04-20T12:17:21.315Z,35.74
2023-04-20T12:19:48.053Z,35.84
2023-04-20T12:22:15.887Z,36.05
2023-04-20T12:24:42.678Z,35.41
2023-04-20T12:27:09.494Z,36.39
2023-04-20T12:29:36.247Z,38.07
2023-04-20T12:32:02.995Z,37.77
2023-04-20T12:34:30.796Z,35.51
2023-04-20T12:36:57.639Z,33.50
2023-04-20T12:39:24.478Z,32.61
2023-04-20T12:41:51.386Z,31.90
2023-04-20T12:44:18.288Z,31.21
2023-04-20T12:46:45.512Z,30.02
2023-04-20T12:49:12.368Z,29.11
2023-04-20T12:51:39.441Z,28.41
2023-04-20T12:54:06.205Z,27.60
2023-04-20T12:56:32.874Z,27.31
2023-04-20T12:58:59.898Z,27.50
2023-04-20T13:01:26.838Z,28.51
2023-04-20T13:03:53.952Z,30.58
2023-04-20T13:06:20.911Z,33.25
2023-04-20T13:08:47.848Z,35.16
2023-04-20T13:11:16.146Z,36.93
2023-04-20T13:13:42.980Z,38.51
2023-04-20T13:16:09.944Z,39.61
2023-04-20T13:18:36.762Z,40.02
2023-04-20T13:21:03.576Z,39.78
2023-04-20T13:23:30.757Z,40.11
2023-04-20T13:25:59.585Z,39.96
2023-04-20T13:28:26.446Z,40.99
2023-04-20T13:30:57.571Z,38.84
2023-04-20T13:33:24.546Z,37.82
2023-04-20T13:35:51.546Z,35.12
2023-04-20T13:38:18.410Z,33.32
2023-04-20T13:40:46.417Z,31.70
2023-04-20T13:43:13.293Z,30.42
2023-04-20T13:45:40.268Z,29.30
2023-04-20T13:48:07.230Z,28.20
2023-04-20T13:50:34.024Z,27.23
2023-04-20T13:53:03.082Z,27.85
2023-04-20T13:55:31.295Z,29.39
2023-04-20T13:57:58.143Z,32.76
2023-04-20T14:00:26.046Z,35.45
2023-04-20T14:02:53.048Z,37.73
2023-04-20T14:05:20.044Z,38.90
2023-04-20T14:07:46.855Z,39.80
2023-04-20T14:10:13.678Z,40.67
2023-04-20T14:12:44.430Z,41.61
2023-04-20T14:15:13.209Z,42.15
2023-04-20T14:17:39.992Z,42.69
2023-04-20T14:20:07.924Z,42.95
2023-04-20T14:22:36.696Z,42.62
2023-04-20T14:25:06.202Z,42.84
2023-04-20T14:27:33.141Z,42.54
2023-04-20T14:29:59.970Z,42.57
2023-04-20T14:32:27.376Z,42.80
2023-04-20T14:34:54.139Z,43.01
2023-04-20T14:37:21.198Z,43.43
2023-04-20T14:39:47.999Z,42.87
2023-04-20T14:42:14.786Z,42.67
2023-04-20T14:44:42.488Z,42.77
2023-04-20T14:47:09.500Z,43.53
2023-04-20T14:49:36.220Z,43.90
2023-04-20T14:52:03.710Z,44.15
2023-04-20T14:54:30.376Z,43.99
2023-04-20T14:56:57.194Z,43.14
2023-04-20T14:59:26.269Z,42.18
2023-04-20T15:02:01.584Z,40.51
2023-04-20T15:04:29.549Z,37.78
2023-04-20T15:06:56.643Z,35.13
2023-04-20T15:09:23.455Z,33.50
2023-04-20T15:11:50.299Z,31.90
2023-04-20T15:14:17.252Z,30.46
2023-04-20T15:16:44.323Z,29.30
2023-04-20T15:19:11.077Z,27.96
2023-04-20T15:21:37.740Z,27.07
2023-04-20T15:24:04.776Z,25.95
2023-04-20T15:26:31.533Z,25.15
2023-04-20T15:28:58.323Z,24.71
2023-04-20T15:31:25.130Z,24.43
2023-04-20T15:33:51.871Z,24.20
2023-04-20T15:36:19.477Z,24.04
2023-04-20T15:38:46.604Z,24.08
2023-04-20T15:41:13.383Z,24.01
2023-04-20T15:43:40.423Z,23.92
2023-04-20T15:46:07.872Z,23.86
2023-04-20T15:48:34.608Z,23.93
2023-04-20T15:51:01.371Z,23.92
2023-04-20T15:53:28.331Z,23.93
2023-04-20T15:55:55.190Z,23.82
2023-04-20T15:58:22.284Z,23.29
2023-04-20T16:00:49.060Z,22.95
2023-04-20T16:03:16.087Z,22.53
2023-04-20T16:05:43.141Z,21.99
2023-04-20T16:08:09.894Z,21.45
2023-04-20T16:10:36.764Z,21.06
2023-04-20T16:13:07.525Z,21.03
2023-04-20T16:15:34.379Z,20.98
2023-04-20T16:18:04.239Z,20.90
2023-04-20T16:20:31.188Z,20.78
2023-04-20T16:23:01.427Z,20.64
2023-04-20T16:25:28.431Z,20.34
2023-04-20T16:27:55.769Z,20.17
2023-04-20T16:30:22.715Z,19.98
2023-04-20T16:32:50.063Z,19.79
2023-04-20T16:35:17.158Z,19.58
2023-04-20T16:37:44.401Z,19.50
2023-04-20T16:40:11.351Z,19.42
2023-04-20T16:42:38.134Z,19.27
2023-04-20T16:45:05.371Z,19.16
2023-04-20T16:47:32.187Z,18.95
2023-04-20T16:49:58.950Z,18.70
2023-04-20T16:52:25.706Z,18.54
2023-04-20T16:54:52.523Z,18.39
2023-04-20T16:57:19.240Z,18.16
2023-04-20T16:59:46.073Z,17.91
2023-04-20T17:02:13.084Z,17.71
2023-04-20T17:04:39.978Z,17.55
2023-04-20T17:07:06.757Z,17.44
2023-04-20T17:09:33.544Z,17.42
2023-04-20T17:12:01.381Z,17.34
2023-04-20T17:14:28.157Z,17.28
2023-04-20T17:16:56.631Z,17.28
2023-04-20T17:19:23.561Z,17.16
2023-04-20T17:21:50.501Z,17.09
2023-04-20T17:24:17.802Z,17.01
2023-04-20T17:26:46.413Z,16.99
2023-04-20T17:29:13.627Z,16.92
2023-04-20T17:31:40.406Z,16.81
2023-04-20T17:34:07.378Z,16.75
2023-04-20T17:36:34.367Z,16.69
2023-04-20T17:39:01.244Z,16.63
2023-04-20T17:41:28.488Z,16.53
2023-04-20T17:43:55.355Z,16.41
2023-04-20T17:46:23.288Z,16.35
2023-04-20T17:48:50.043Z,16.36
2023-04-20T17:51:16.826Z,16.37
2023-04-20T17:53:43.599Z,16.39
2023-04-20T17:56:10.898Z,16.44
2023-04-20T17:58:37.730Z,16.37
2023-04-20T18:01:04.663Z,16.40
2023-04-20T18:03:31.678Z,16.44
2023-04-20T18:05:58.607Z,16.45
2023-04-20T18:08:25.801Z,16.45
2023-04-20T18:10:52.599Z,16.42
2023-04-20T18:13:19.284Z,16.35
2023-04-20T18:15:46.106Z,16.31
2023-04-20T18:18:12.946Z,16.27
2023-04-20T18:20:40.421Z,16.25
2023-04-20T18:23:07.508Z,16.25
2023-04-20T18:25:34.301Z,16.20
2023-04-20T18:28:01.110Z,16.17
2023-04-20T18:30:27.841Z,16.09
2023-04-20T18:32:54.690Z,16.07
2023-04-20T18:35:21.519Z,15.99
2023-04-20T18:37:48.272Z,15.94
2023-04-20T18:40:16.394Z,15.87
2023-04-20T18:42:43.411Z,15.82
2023-04-20T18:45:12.320Z,15.71
2023-04-20T18:47:39.484Z,15.69
2023-04-20T18:50:06.881Z,15.69
2023-04-20T18:52:34.594Z,15.61
2023-04-20T18:55:01.667Z,15.57
2023-04-20T18:57:29.068Z,15.49
2023-04-20T18:59:56.430Z,15.52
2023-04-20T19:02:23.372Z,15.47
2023-04-20T19:04:51.024Z,15.41
2023-04-20T19:07:18.446Z,15.34
2023-04-20T19:09:45.357Z,15.32
2023-04-20T19:12:12.174Z,15.28
2023-04-20T19:14:38.899Z,15.25
2023-04-20T19:17:07.131Z,15.20
2023-04-20T19:19:34.110Z,15.16
2023-04-20T19:22:00.868Z,15.11
2023-04-20T19:24:27.867Z,15.07
2023-04-20T19:26:54.694Z,15.00
2023-04-20T19:29:21.426Z,14.98
2023-04-20T19:31:48.313Z,14.98
2023-04-20T19:34:15.293Z,14.97
2023-04-20T19:36:42.364Z,14.91
2023-04-20T19:39:09.632Z,14.87
2023-04-20T19:41:36.405Z,14.82
2023-04-20T19:44:06.594Z,14.76
2023-04-20T19:46:33.904Z,14.75
2023-04-20T19:49:01.142Z,14.78
2023-04-20T19:51:27.855Z,14.73
2023-04-20T19:53:54.586Z,14.70
2023-04-20T19:56:21.359Z,14.65
2023-04-20T19:58:48.149Z,14.59
2023-04-20T20:01:14.992Z,14.56
2023-04-20T20:03:43.039Z,14.56
2023-04-20T20:06:10.025Z,14.52
2023-04-20T20:08:37.016Z,14.49
2023-04-20T20:11:04.082Z,14.42
2023-04-20T20:13:30.922Z,14.36
2023-04-20T20:15:58.945Z,14.34
2023-04-20T20:18:26.546Z,14.31
2023-04-20T20:20:53.352Z,14.26
2023-04-20T20:23:20.174Z,14.20
2023-04-20T20:25:46.902Z,14.13
2023-04-20T20:28:14.012Z,14.07
2023-04-20T20:30:44.986Z,13.98
2023-04-20T20:33:12.343Z,13.96
2023-04-20T20:35:39.885Z,13.88
2023-04-20T20:38:07.851Z,13.85
2023-04-20T20:40:35.219Z,13.77
2023-04-20T20:43:02.448Z,13.69
2023-04-20T20:45:29.974Z,13.59
2023-04-20T20:47:56.820Z,13.48
2023-04-20T20:50:23.660Z,13.45
2023-04-20T20:52:50.463Z,13.39
2023-04-20T20:55:17.216Z,13.39
2023-04-20T20:57:44.387Z,13.36
2023-04-20T21:00:11.967Z,13.39
2023-04-20T21:02:38.989Z,13.37
2023-04-20T21:05:06.588Z,13.31
2023-04-20T21:07:33.446Z,13.23
2023-04-20T21:10:00.254Z,13.19
2023-04-20T21:12:27.022Z,13.16
2023-04-20T21:14:53.914Z,13.09
2023-04-20T21:17:20.681Z,12.98
2023-04-20T21:19:47.400Z,12.90
2023-04-20T21:22:14.315Z,12.94
2023-04-20T21:24:41.204Z,12.99
2023-04-20T21:27:08.118Z,13.04
2023-04-20T21:29:34.873Z,13.13
2023-04-20T21:32:01.706Z,13.21
2023-04-20T21:34:28.526Z,13.24
2023-04-20T21:36:55.320Z,13.30
2023-04-20T21:39:22.113Z,13.33
2023-04-20T21:41:48.877Z,13.36
2023-04-20T21:44:15.687Z,13.35
2023-04-20T21:46:42.496Z,13.32
2023-04-20T21:49:09.206Z,13.24
2023-04-20T21:51:35.983Z,13.21
2023-04-20T21:54:02.708Z,13.17
2023-04-20T21:56:29.454Z,13.14
2023-04-20T21:58:56.172Z,13.13
2023-04-20T22:01:22.983Z,13.12
2023-04-20T22:03:49.903Z,13.12
2023-04-20T22:06:16.719Z,13.13
2023-04-20T22:08:43.504Z,13.12
2023-04-20T22:11:10.534Z,13.15
2023-04-20T22:13:37.635Z,13.10
2023-04-20T22:16:04.738Z,13.07
2023-04-20T22:18:31.559Z,13.00
2023-04-20T22:20:58.315Z,13.05
2023-04-20T22:23:25.135Z,13.01
2023-04-20T22:25:51.863Z,12.97
2023-04-20T22:28:18.566Z,12.94
2023-04-20T22:30:45.246Z,12.89
2023-04-20T22:33:11.982Z,12.84
2023-04-20T22:35:38.750Z,12.83
2023-04-20T22:38:05.691Z,12.75
2023-04-20T22:40:32.665Z,12.71
2023-04-20T22:42:59.344Z,12.67
2023-04-20T22:45:26.343Z,12.60
2023-04-20T22:47:53.285Z,12.55
2023-04-20T22:50:20.016Z,12.49
2023-04-20T22:52:47.007Z,12.42
2023-04-20T22:55:14.405Z,12.36
2023-04-20T22:57:41.344Z,12.30
2023-04-20T23:00:10.699Z,12.29
2023-04-20T23:02:37.992Z,12.27
2023-04-20T23:05:05.773Z,12.23
2023-04-20T23:07:33.012Z,12.17
2023-04-20T23:10:00.235Z,12.11
2023-04-20T23:12:29.360Z,12.08
2023-04-20T23:14:56.691Z,12.07
2023-04-20T23:17:23.649Z,12.07
2023-04-20T23:19:51.063Z,12.06
2023-04-20T23:22:17.994Z,11.98
2023-04-20T23:24:44.973Z,11.92
2023-04-20T23:27:11.744Z,11.89
2023-04-20T23:29:38.487Z,11.83
2023-04-20T23:32:05.357Z,11.86
2023-04-20T23:34:32.139Z,11.83
2023-04-20T23:36:59.034Z,11.80
2023-04-20T23:39:25.843Z,11.74
2023-04-20T23:41:52.620Z,11.71
2023-04-20T23:44:19.360Z,11.67
2023-04-20T23:46:46.391Z,11.62
2023-04-20T23:49:13.164Z,11.58
2023-04-20T23:51:40.197Z,11.47
2023-04-20T23:54:06.985Z,11.43
2023-04-20T23:56:33.705Z,11.38
2023-04-20T23:59:00.476Z,11.31
